Time;durP1;ratioP1;P1;durP2;ratioP2;P2;SDS_P1;SDS_P2;PMS_P1;PMS_P2;Temp;Humidity;BMP_temperature;BMP_pressure;BME280_temperature;BME280_humidity;BME280_pressure;Samples;Min_cycle;Max_cycle;Signal;HPM_P1;HPM_P2
2021/06/22 00:01:50;;;;;;;;;0.00;0.00;;;;;18.85;61.57;100668.78;4965544;28;45676;-63
2021/06/22 00:04:16;;;;;;;;;0.00;0.00;;;;;18.83;61.96;100671.66;4969024;28;45691;-68
2021/06/22 00:06:41;;;;;;;;;0.25;0.00;;;;;18.83;62.72;100676.19;4969033;28;45489;-64
2021/06/22 00:09:06;;;;;;;;;0.25;0.25;;;;;18.81;62.63;100679.06;4962589;28;45528;-65
2021/06/22 00:11:32;;;;;;;;;0.25;0.25;;;;;18.79;62.55;100672.25;4963559;28;45564;-65
2021/06/22 00:13:58;;;;;;;;;0.00;0.00;;;;;18.78;62.51;100674.13;4963867;28;45505;-64
2021/06/22 00:16:24;;;;;;;;;0.50;0.00;;;;;18.79;63.36;100680.28;4966516;28;45525;-65
2021/06/22 00:18:49;;;;;;;;;0.00;0.00;;;;;18.79;63.66;100680.28;4969585;28;45455;-65
2021/06/22 00:21:15;;;;;;;;;0.25;0.25;;;;;18.78;62.91;100687.50;4964374;28;45528;-67
2021/06/22 00:23:40;;;;;;;;;1.00;0.00;;;;;18.75;63.06;100679.03;4967563;28;45504;-67
2021/06/22 00:26:06;;;;;;;;;0.00;0.00;;;;;18.77;63.88;100688.53;4963485;28;48117;-65
2021/06/22 00:28:31;;;;;;;;;2.00;0.00;;;;;18.75;62.84;100679.03;4967404;28;45689;-68
2021/06/22 00:30:56;;;;;;;;;0.00;0.00;;;;;18.73;63.77;100675.72;4967992;28;45514;-66
2021/06/22 00:33:22;;;;;;;;;0.00;0.00;;;;;18.70;63.13;100677.78;4966826;28;45736;-63
2021/06/22 00:35:47;;;;;;;;;0.00;0.00;;;;;18.70;62.54;100677.78;4962820;28;46165;-64
2021/06/22 00:38:13;;;;;;;;;0.00;0.00;;;;;18.70;64.03;100675.09;4963014;28;47721;-65
2021/06/22 00:40:38;;;;;;;;;0.00;0.00;;;;;18.74;63.42;100677.38;4963452;28;45633;-63
2021/06/22 00:43:04;;;;;;;;;1.25;1.00;;;;;18.75;64.05;100671.00;4964682;28;45624;-65
2021/06/22 00:45:32;;;;;;;;;0.25;0.25;;;;;18.77;63.35;100672.47;4967838;28;45795;-66
2021/06/22 00:47:57;;;;;;;;;0.00;0.00;;;;;18.79;63.04;100669.59;4965116;28;45466;-66
2021/06/22 00:50:24;;;;;;;;;0.75;0.75;;;;;18.79;63.12;100674.94;4966139;28;45458;-68
2021/06/22 00:52:50;;;;;;;;;0.25;0.25;;;;;18.81;63.12;100672.88;4965483;28;45538;-68
2021/06/22 00:55:28;;;;;;;;;0.00;0.00;;;;;18.81;63.18;100676.38;4962311;28;46915;-65
2021/06/22 00:58:05;;;;;;;;;0.00;0.00;;;;;18.83;63.30;100674.31;4963398;28;45892;-65
2021/06/22 01:00:32;;;;;;;;;0.00;0.00;;;;;18.86;63.51;100679.25;4967706;28;45602;-66
2021/06/22 01:02:58;;;;;;;;;1.00;1.00;;;;;18.86;63.48;100695.31;4981041;28;45580;-65
2021/06/22 01:05:24;;;;;;;;;2.00;1.00;;;;;18.86;63.64;100697.19;4961008;28;46338;-67
2021/06/22 01:07:56;;;;;;;;;0.50;0.50;;;;;18.89;63.23;100688.72;4962933;28;45497;-66
2021/06/22 01:10:22;;;;;;;;;0.00;0.00;;;;;18.90;63.36;100693.91;4962924;28;45507;-72
2021/06/22 01:12:49;;;;;;;;;1.00;1.00;;;;;18.90;64.79;100691.22;4967964;28;45576;-66
2021/06/22 01:15:18;;;;;;;;;1.00;1.00;;;;;18.91;63.69;100694.72;4965011;28;47271;-71
2021/06/22 01:17:44;;;;;;;;;1.50;1.25;;;;;18.89;63.87;100692.25;4966694;28;45414;-67
2021/06/22 01:20:11;;;;;;;;;2.50;2.00;;;;;18.89;64.02;100681.56;4964402;28;45535;-67
2021/06/22 01:22:41;;;;;;;;;2.50;1.50;;;;;18.84;63.79;100673.31;4965019;28;45502;-67
2021/06/22 01:25:07;;;;;;;;;5.00;3.00;;;;;18.81;64.26;100678.25;4964223;28;47196;-69
2021/06/22 01:27:32;;;;;;;;;3.25;3.25;;;;;18.79;63.80;100680.28;4968053;28;45538;-71
2021/06/22 01:30:00;;;;;;;;;3.75;1.50;;;;;18.76;63.68;100670.81;4963661;28;45514;-67
2021/06/22 01:32:25;;;;;;;;;1.75;1.00;;;;;18.78;64.33;100673.31;4963844;28;45654;-70
2021/06/22 01:34:51;;;;;;;;;2.75;2.25;;;;;18.78;64.06;100662.59;4959556;28;47349;-68
2021/06/22 01:37:16;;;;;;;;;7.00;5.00;;;;;18.79;63.97;100669.59;4961852;28;45520;-69
2021/06/22 01:39:42;;;;;;;;;7.75;5.00;;;;;18.80;63.76;100660.53;4966169;28;45826;-70
2021/06/22 01:42:07;;;;;;;;;4.25;4.25;;;;;18.79;63.67;100656.19;4979722;28;45537;-71
2021/06/22 01:44:34;;;;;;;;;4.00;4.00;;;;;18.76;63.83;100657.44;4961757;28;46116;-70
2021/06/22 01:46:59;;;;;;;;;3.25;3.00;;;;;18.78;64.38;100657.25;4969908;28;45476;-70
2021/06/22 01:49:25;;;;;;;;;4.50;3.50;;;;;18.76;64.52;100654.75;4962563;28;45831;-71
2021/06/22 01:51:50;;;;;;;;;3.50;2.00;;;;;18.73;64.33;100654.31;4962194;28;45449;-66
2021/06/22 01:54:16;;;;;;;;;1.50;1.50;;;;;18.68;64.23;100647.72;4964907;28;45534;-71
2021/06/22 01:56:47;;;;;;;;;4.75;2.75;;;;;18.65;64.17;100650.81;4966554;28;46183;-69
2021/06/22 01:59:13;;;;;;;;;4.00;2.50;;;;;18.65;64.20;100652.66;4962728;28;45464;-71
2021/06/22 02:01:41;;;;;;;;;3.00;3.00;;;;;18.63;64.31;100652.03;4961482;28;45738;-67
2021/06/22 02:04:06;;;;;;;;;2.00;2.00;;;;;18.60;64.86;100653.28;4968523;28;46094;-71
2021/06/22 02:06:32;;;;;;;;;1.00;1.00;;;;;18.58;64.97;100657.19;4969079;28;45517;-66
2021/06/22 02:08:57;;;;;;;;;1.50;1.00;;;;;18.55;65.12;100663.78;4962935;28;45580;-73
2021/06/22 02:11:22;;;;;;;;;0.75;0.50;;;;;18.52;64.51;100666.84;4959119;28;45648;-73
2021/06/22 02:13:48;;;;;;;;;1.00;1.00;;;;;18.48;64.78;100668.28;4963413;28;45600;-67
2021/06/22 02:16:15;;;;;;;;;2.50;1.00;;;;;18.47;65.92;100663.94;4963038;28;45572;-74
2021/06/22 02:18:40;;;;;;;;;2.00;1.00;;;;;18.51;65.30;100669.72;4960933;28;45477;-69
2021/06/22 02:21:06;;;;;;;;;2.75;2.50;;;;;18.52;65.27;100666.84;4970936;28;45511;-66
2021/06/22 02:23:33;;;;;;;;;2.00;2.00;;;;;18.55;65.08;100666.44;4965177;28;46344;-73
2021/06/22 02:25:58;;;;;;;;;1.00;1.00;;;;;18.57;65.69;100660.88;4965806;28;45545;-67
2021/06/22 02:28:23;;;;;;;;;2.50;1.00;;;;;18.60;65.45;100661.31;4961237;28;45357;-70
2021/06/22 02:30:51;;;;;;;;;1.00;1.00;;;;;18.63;65.09;100663.56;4969869;28;45620;-67
2021/06/22 02:33:17;;;;;;;;;1.00;1.00;;;;;18.66;65.26;100667.69;4957871;28;45593;-66
2021/06/22 02:35:42;;;;;;;;;3.00;3.00;;;;;18.67;65.05;100662.13;4964325;28;45413;-69
2021/06/22 02:38:08;;;;;;;;;3.25;3.00;;;;;18.69;65.19;100659.25;4963583;28;45540;-73
2021/06/22 02:40:34;;;;;;;;;2.75;2.75;;;;;18.69;65.36;100657.41;4964703;28;57397;-71
2021/06/22 02:43:00;;;;;;;;;3.00;3.00;;;;;18.67;65.39;100661.31;4968566;28;45788;-66
2021/06/22 02:45:26;;;;;;;;;3.25;3.25;;;;;18.66;65.66;100670.38;4966430;28;45712;-73
2021/06/22 02:47:51;;;;;;;;;5.00;3.75;;;;;18.65;65.90;100674.91;4968892;28;45535;-71
2021/06/22 02:50:18;;;;;;;;;4.25;4.25;;;;;18.68;66.11;100668.31;4963118;28;45473;-66
2021/06/22 02:52:44;;;;;;;;;4.00;3.25;;;;;18.69;66.75;100670.78;4982808;28;48448;-71
2021/06/22 02:55:20;;;;;;;;;3.25;2.50;;;;;18.72;66.22;100679.41;4963225;28;45502;-66
2021/06/22 02:57:48;;;;;;;;;3.50;2.25;;;;;18.75;65.96;100684.41;4967301;28;45889;-67
2021/06/22 03:00:16;;;;;;;;;3.50;2.00;;;;;18.76;66.16;100678.03;4963045;28;45608;-67
2021/06/22 03:02:41;;;;;;;;;3.00;2.50;;;;;18.78;65.94;100684.00;4960599;28;54026;-69
2021/06/22 03:05:08;;;;;;;;;3.50;2.75;;;;;18.78;65.79;100681.34;4980056;28;45502;-69
2021/06/22 03:07:33;;;;;;;;;4.00;4.00;;;;;18.78;66.04;100684.00;4970950;28;45469;-73
2021/06/22 03:09:59;;;;;;;;;3.50;2.25;;;;;18.77;65.96;100680.50;4965963;28;45759;-66
2021/06/22 03:12:24;;;;;;;;;2.50;2.50;;;;;18.77;66.42;100688.53;4964772;28;46146;-73
2021/06/22 03:14:49;;;;;;;;;3.50;3.50;;;;;18.75;65.56;100679.03;4964121;28;45529;-71
2021/06/22 03:17:15;;;;;;;;;3.25;2.50;;;;;18.71;65.76;100675.94;4970000;28;45620;-66
2021/06/22 03:19:40;;;;;;;;;2.50;2.50;;;;;18.70;66.35;100671.63;4961536;28;45545;-66
2021/06/22 03:22:06;;;;;;;;;3.50;3.50;;;;;18.67;66.30;100670.16;4964291;28;47274;-73
2021/06/22 03:24:31;;;;;;;;;3.00;3.00;;;;;18.63;66.83;100663.56;4964237;28;45537;-66
2021/06/22 03:26:56;;;;;;;;;4.00;2.00;;;;;18.58;66.48;100663.34;4962804;28;45581;-73
2021/06/22 03:29:23;;;;;;;;;3.00;3.00;;;;;18.61;66.61;100668.28;4964250;28;45969;-71
2021/06/22 03:31:49;;;;;;;;;3.50;3.25;;;;;18.63;66.53;100668.91;4962275;28;45918;-69
2021/06/22 03:34:15;;;;;;;;;3.25;2.50;;;;;18.64;66.61;100673.25;4961946;28;46095;-73
2021/06/22 03:36:40;;;;;;;;;4.75;4.00;;;;;18.67;66.58;100672.03;4967348;28;45915;-67
2021/06/22 03:39:09;;;;;;;;;7.00;5.00;;;;;18.66;66.62;100665.81;4961123;28;45590;-72
2021/06/22 03:41:36;;;;;;;;;4.75;4.75;;;;;18.67;66.58;100672.84;4959925;28;50921;-69
2021/06/22 03:44:02;;;;;;;;;3.50;3.50;;;;;18.69;67.47;100669.94;4961873;28;45512;-71
2021/06/22 03:46:28;;;;;;;;;5.00;4.25;;;;;18.70;66.72;100672.44;4963196;28;45481;-69
2021/06/22 03:48:53;;;;;;;;;5.50;5.50;;;;;18.72;67.05;100676.75;4966102;28;45556;-66
2021/06/22 03:51:18;;;;;;;;;4.00;4.00;;;;;18.73;67.20;100681.09;4962266;28;45585;-66
2021/06/22 03:53:44;;;;;;;;;3.25;3.25;;;;;18.74;67.43;100688.06;4964359;28;45414;-69
2021/06/22 03:56:10;;;;;;;;;6.00;5.00;;;;;18.76;67.37;100688.72;4964856;28;45537;-68
2021/06/22 03:58:36;;;;;;;;;4.00;4.00;;;;;18.73;67.44;100691.78;4965986;28;45740;-68
2021/06/22 04:01:02;;;;;;;;;6.00;4.00;;;;;18.73;67.70;100697.16;4965375;28;46029;-68
2021/06/22 04:03:29;;;;;;;;;4.50;4.50;;;;;18.75;67.85;100700.47;4963298;28;45571;-71
2021/06/22 04:05:54;;;;;;;;;7.00;5.50;;;;;18.77;67.66;100701.09;4962358;28;45517;-67
2021/06/22 04:08:20;;;;;;;;;6.50;5.00;;;;;18.78;67.72;100705.44;4975810;28;45484;-70
2021/06/22 04:10:46;;;;;;;;;6.25;6.25;;;;;18.79;67.85;100710.59;4960129;28;46130;-67
2021/06/22 04:13:11;;;;;;;;;5.00;5.00;;;;;18.79;67.83;100710.59;4961434;28;45414;-70
2021/06/22 04:15:37;;;;;;;;;4.00;4.00;;;;;18.81;68.00;100715.72;4966508;28;45528;-67
2021/06/22 04:18:07;;;;;;;;;4.00;4.00;;;;;18.82;68.37;100722.75;4960225;28;45616;-67
2021/06/22 04:20:34;;;;;;;;;5.25;5.00;;;;;18.82;68.47;100726.25;4963823;28;47737;-67
2021/06/22 04:23:00;;;;;;;;;8.00;5.00;;;;;18.85;68.65;100725.00;4959107;28;45510;-66
2021/06/22 04:25:25;;;;;;;;;4.00;4.00;;;;;18.86;68.35;100713.25;4959384;28;45828;-67
2021/06/22 04:27:51;;;;;;;;;4.50;4.50;;;;;18.90;68.42;100725.22;4960098;28;45777;-66
2021/06/22 04:30:17;;;;;;;;;4.00;4.00;;;;;18.95;68.52;100721.94;4962044;28;46973;-70
2021/06/22 04:32:42;;;;;;;;;2.00;2.00;;;;;18.97;67.38;100715.34;4960228;28;45597;-67
2021/06/22 04:35:08;;;;;;;;;4.00;3.75;;;;;18.98;67.50;100711.63;4960272;28;45474;-67
2021/06/22 04:37:34;;;;;;;;;4.00;4.00;;;;;19.00;67.27;100725.63;4961961;28;45589;-69
2021/06/22 04:39:59;;;;;;;;;4.00;3.00;;;;;19.00;67.44;100719.47;4965108;28;45998;-71
2021/06/22 04:42:25;;;;;;;;;3.00;3.00;;;;;19.00;67.27;100725.63;4961772;28;45506;-70
2021/06/22 04:44:50;;;;;;;;;3.00;3.00;;;;;19.01;67.33;100721.09;4961034;28;45491;-68
2021/06/22 04:47:15;;;;;;;;;4.25;4.25;;;;;19.02;66.74;100720.91;4961055;28;45466;-67
2021/06/22 04:49:41;;;;;;;;;3.00;3.00;;;;;19.05;66.85;100717.00;4961402;28;46228;-71
2021/06/22 04:52:09;;;;;;;;;3.00;3.00;;;;;19.08;66.90;100720.06;4966245;28;46012;-66
2021/06/22 04:54:34;;;;;;;;;6.00;4.75;;;;;19.11;66.98;100717.00;4963306;28;45558;-71
2021/06/22 04:57:00;;;;;;;;;4.00;2.50;;;;;19.11;66.67;100727.72;4963794;28;45573;-71
2021/06/22 04:59:25;;;;;;;;;3.50;2.50;;;;;19.12;66.86;100734.72;4959237;28;46166;-69
2021/06/22 05:01:51;;;;;;;;;3.00;3.00;;;;;19.13;67.34;100738.19;4968803;28;45548;-70
2021/06/22 05:04:16;;;;;;;;;3.75;3.00;;;;;19.15;67.26;100724.63;4966923;28;45505;-66
2021/06/22 05:06:41;;;;;;;;;5.50;4.00;;;;;19.18;67.19;100726.88;4968724;28;45448;-66
2021/06/22 05:09:07;;;;;;;;;2.50;2.50;;;;;19.21;67.70;100726.44;4965640;28;46122;-70
2021/06/22 05:11:32;;;;;;;;;7.00;4.00;;;;;19.24;67.45;100728.75;4965776;28;45542;-67
2021/06/22 05:13:58;;;;;;;;;7.00;6.00;;;;;19.28;67.88;100733.47;4966898;28;45620;-69
2021/06/22 05:16:23;;;;;;;;;9.75;8.75;;;;;19.25;68.23;100728.53;4966634;28;45554;-66
2021/06/22 05:18:49;;;;;;;;;8.50;8.00;;;;;19.24;68.22;100731.44;4967964;28;45556;-67
2021/06/22 05:21:15;;;;;;;;;8.75;8.75;;;;;19.22;68.79;100730.81;4965756;28;45506;-71
2021/06/22 05:23:40;;;;;;;;;11.50;10.00;;;;;19.23;68.97;100740.47;4962041;28;45621;-65
2021/06/22 05:26:06;;;;;;;;;11.00;8.50;;;;;19.19;69.36;100733.88;4966991;28;45556;-69
2021/06/22 05:28:31;;;;;;;;;7.75;7.75;;;;;19.13;69.57;100735.53;4963810;28;45610;-66
2021/06/22 05:30:57;;;;;;;;;10.25;8.25;;;;;19.15;69.67;100736.16;4968167;28;45485;-67
2021/06/22 05:33:22;;;;;;;;;8.75;7.25;;;;;19.19;69.59;100744.59;4963399;28;45532;-69
2021/06/22 05:35:48;;;;;;;;;7.25;6.50;;;;;19.23;69.42;100746.66;4965014;28;45510;-66
2021/06/22 05:38:14;;;;;;;;;10.25;9.00;;;;;19.23;69.60;100746.66;4959883;28;48203;-67
2021/06/22 05:40:39;;;;;;;;;9.00;8.75;;;;;19.17;71.13;100746.66;4964972;28;45672;-69
2021/06/22 05:43:05;;;;;;;;;10.50;9.25;;;;;19.03;70.24;100743.97;4968186;28;45528;-70
2021/06/22 05:45:30;;;;;;;;;9.50;9.50;;;;;18.98;70.34;100745.63;4968755;28;45550;-66
2021/06/22 05:47:56;;;;;;;;;9.50;7.75;;;;;19.01;70.26;100747.88;4964938;28;46250;-67
2021/06/22 05:50:21;;;;;;;;;11.25;7.50;;;;;19.09;70.13;100756.56;4963561;28;45902;-69
2021/06/22 05:52:47;;;;;;;;;11.25;8.75;;;;;19.18;70.10;100759.84;4962860;28;45582;-69
2021/06/22 05:55:16;;;;;;;;;10.25;10.00;;;;;19.24;69.69;100751.00;4965529;28;45853;-68
2021/06/22 05:57:47;;;;;;;;;9.25;7.25;;;;;19.34;69.96;100753.28;4969148;28;45422;-66
2021/06/22 06:00:14;;;;;;;;;10.25;9.00;;;;;19.43;70.53;100753.88;4962390;28;45807;-67
2021/06/22 06:02:39;;;;;;;;;9.00;8.00;;;;;19.49;69.60;100761.09;4963468;28;45650;-66
2021/06/22 06:05:05;;;;;;;;;12.00;9.00;;;;;19.53;69.37;100762.31;4965058;28;45516;-67
2021/06/22 06:07:31;;;;;;;;;11.75;8.25;;;;;19.55;69.19;100768.28;4967666;28;46372;-67
2021/06/22 06:09:56;;;;;;;;;9.25;9.00;;;;;19.58;68.93;100767.06;4963223;28;45558;-69
2021/06/22 06:12:21;;;;;;;;;9.25;8.50;;;;;19.58;69.18;100777.78;4963747;28;45772;-67
2021/06/22 06:14:47;;;;;;;;;12.25;10.25;;;;;19.53;69.41;100773.03;4967067;28;45489;-67
2021/06/22 06:17:12;;;;;;;;;12.50;10.50;;;;;19.50;69.58;100779.63;4961751;28;45552;-67
2021/06/22 06:19:39;;;;;;;;;12.25;10.50;;;;;19.54;69.44;100780.88;4959396;28;45596;-69
2021/06/22 06:22:05;;;;;;;;;10.75;9.25;;;;;19.59;69.57;100782.94;4966144;28;45520;-67
2021/06/22 06:24:30;;;;;;;;;11.25;11.00;;;;;19.61;69.05;100774.66;4968289;28;45558;-71
2021/06/22 06:27:19;;;;;;;;;12.50;11.25;;;;;19.63;69.71;100783.34;4963044;28;46148;-70
2021/06/22 06:29:59;;;;;;;;;13.25;10.50;;;;;19.62;69.72;100779.03;4962421;28;45550;-65
2021/06/22 06:32:24;;;;;;;;;12.75;10.75;;;;;19.61;69.54;100777.34;4958455;28;45585;-67
2021/06/22 06:34:50;;;;;;;;;10.00;8.50;;;;;19.61;70.20;100782.72;4961659;28;45476;-63
2021/06/22 06:37:15;;;;;;;;;12.50;12.50;;;;;19.60;69.64;100784.56;4964585;28;46134;-65
2021/06/22 06:39:41;;;;;;;;;11.25;11.25;;;;;19.59;69.57;100788.28;4968657;28;45930;-66
2021/06/22 06:42:07;;;;;;;;;14.50;12.25;;;;;19.61;70.00;100785.38;4963864;28;46149;-65
2021/06/22 06:44:32;;;;;;;;;11.75;11.50;;;;;19.59;69.45;100788.28;4961936;28;45514;-66
2021/06/22 06:46:58;;;;;;;;;12.25;12.00;;;;;19.61;69.92;100791.59;4963616;28;45418;-65
2021/06/22 06:49:23;;;;;;;;;11.25;10.00;;;;;19.64;70.24;100799.22;4963415;28;45920;-66
2021/06/22 06:51:49;;;;;;;;;11.00;8.25;;;;;19.57;70.32;100800.25;4966308;28;45516;-64
2021/06/22 06:54:14;;;;;;;;;10.50;10.50;;;;;19.48;70.30;100796.94;4962051;28;45597;-66
2021/06/22 06:56:40;;;;;;;;;10.00;9.25;;;;;19.44;71.19;100804.59;4963122;28;45517;-66
2021/06/22 06:59:05;;;;;;;;;14.50;11.00;;;;;19.37;70.38;100805.63;4960307;28;45520;-71
2021/06/22 07:01:31;;;;;;;;;11.50;11.25;;;;;19.38;69.53;100809.94;4958582;28;45949;-65
2021/06/22 07:03:56;;;;;;;;;13.75;11.25;;;;;19.41;71.39;100809.53;4966268;28;45684;-71
2021/06/22 07:06:22;;;;;;;;;12.50;11.75;;;;;19.40;71.31;100811.38;4960900;28;46651;-71
2021/06/22 07:08:47;;;;;;;;;11.50;11.50;;;;;19.37;71.12;100811.81;4962463;28;45521;-66
2021/06/22 07:11:16;;;;;;;;;10.25;9.75;;;;;19.33;71.19;100810.56;4961834;28;45378;-71
2021/06/22 07:13:41;;;;;;;;;15.75;14.50;;;;;19.34;72.13;100820.25;4963201;28;45723;-65
2021/06/22 07:16:07;;;;;;;;;16.25;13.25;;;;;19.27;71.72;100817.56;4962168;28;45538;-68
2021/06/22 07:18:32;;;;;;;;;16.50;12.50;;;;;19.28;71.69;100813.84;4964124;28;45519;-76
2021/06/22 07:20:58;;;;;;;;;14.50;13.25;;;;;19.31;71.82;100817.97;4960970;28;45903;-66
2021/06/22 07:23:24;;;;;;;;;15.50;13.25;;;;;19.31;71.19;100817.97;4957423;28;45497;-68
2021/06/22 07:25:50;;;;;;;;;13.75;11.75;;;;;19.27;72.51;100816.75;4960656;28;46835;-69
2021/06/22 07:28:15;;;;;;;;;15.00;12.25;;;;;19.24;72.75;100817.97;4960542;28;45870;-68
2021/06/22 07:30:41;;;;;;;;;17.75;15.50;;;;;19.23;73.53;100819.00;4970051;28;45728;-72
2021/06/22 07:33:06;;;;;;;;;13.25;11.50;;;;;19.29;72.46;100815.50;4973144;28;45553;-66
2021/06/22 07:35:32;;;;;;;;;18.50;14.25;;;;;19.38;71.15;100818.78;4966973;28;46163;-72
2021/06/22 07:37:58;;;;;;;;;19.50;16.25;;;;;19.40;71.87;100819.41;4962718;28;45610;-66
2021/06/22 07:40:24;;;;;;;;;12.00;12.00;;;;;19.40;71.54;100818.59;4960404;28;45840;-68
2021/06/22 07:42:51;;;;;;;;;17.50;14.50;;;;;19.45;71.80;100825.00;4965131;28;45987;-71
2021/06/22 07:45:19;;;;;;;;;15.50;14.50;;;;;19.51;72.62;100818.81;4962439;28;46291;-65
2021/06/22 07:47:44;;;;;;;;;22.75;19.25;;;;;19.55;74.30;100820.03;4964282;28;45597;-71
2021/06/22 07:50:11;;;;;;;;;21.75;19.75;;;;;19.53;71.64;100811.41;4963553;28;45820;-67
2021/06/22 07:52:37;;;;;;;;;22.75;21.75;;;;;19.54;73.56;100818.41;4963053;28;45877;-66
2021/06/22 07:55:03;;;;;;;;;28.50;23.00;;;;;19.46;73.20;100815.94;4964021;28;45475;-71
2021/06/22 07:57:29;;;;;;;;;21.25;20.50;;;;;19.35;71.75;100819.22;4963138;28;45540;-65
2021/06/22 07:59:54;;;;;;;;;28.25;24.50;;;;;19.26;71.65;100820.44;4961708;28;45550;-71
2021/06/22 08:02:19;;;;;;;;;24.75;23.25;;;;;19.17;72.47;100830.53;4964108;28;45563;-66
2021/06/22 08:04:45;;;;;;;;;28.00;25.75;;;;;19.13;72.33;100826.59;4965705;28;46906;-65
2021/06/22 08:07:10;;;;;;;;;26.00;24.50;;;;;19.15;72.32;100834.44;4967062;28;49076;-64
2021/06/22 08:09:36;;;;;;;;;24.50;22.00;;;;;19.18;73.16;100834.03;4968675;28;45810;-66
2021/06/22 08:12:02;;;;;;;;;26.75;21.00;;;;;19.24;72.16;100833.22;4964148;28;45595;-71
2021/06/22 08:14:27;;;;;;;;;25.00;22.75;;;;;19.27;73.44;100841.69;4965754;28;47110;-67
2021/06/22 08:16:52;;;;;;;;;19.75;19.75;;;;;19.31;73.20;100847.44;4964680;28;49099;-65
2021/06/22 08:19:18;;;;;;;;;21.25;20.00;;;;;19.31;72.92;100842.06;4965018;28;45573;-66
2021/06/22 08:21:43;;;;;;;;;20.25;18.00;;;;;19.30;73.39;100837.75;4972173;28;45450;-72
2021/06/22 08:24:09;;;;;;;;;21.75;20.25;;;;;19.34;73.24;100845.19;4966945;28;46412;-72
2021/06/22 08:26:34;;;;;;;;;20.75;20.50;;;;;19.38;72.81;100847.47;4967916;28;45604;-67
2021/06/22 08:29:01;;;;;;;;;16.75;16.25;;;;;19.38;73.69;100850.13;4967402;28;45621;-66
2021/06/22 08:31:26;;;;;;;;;20.75;16.50;;;;;19.41;72.37;100841.69;4966193;28;45622;-70
2021/06/22 08:33:52;;;;;;;;;19.25;17.25;;;;;19.46;72.75;100855.28;4963477;28;46190;-66
2021/06/22 08:36:18;;;;;;;;;21.25;18.00;;;;;19.57;72.70;100848.50;4968582;28;45930;-73
2021/06/22 08:38:43;;;;;;;;;19.50;19.50;;;;;19.70;72.64;100848.53;4962694;28;45498;-72
2021/06/22 08:41:09;;;;;;;;;21.50;20.50;;;;;19.87;72.59;100855.13;4965708;28;45625;-69
2021/06/22 08:43:35;;;;;;;;;20.25;17.25;;;;;20.02;71.68;100848.72;4965409;28;46153;-70
2021/06/22 08:46:02;;;;;;;;;18.25;16.75;;;;;20.23;71.73;100861.91;4967665;28;45587;-72
2021/06/22 08:48:29;;;;;;;;;22.00;18.00;;;;;20.52;70.75;100857.06;4966895;28;45540;-70
2021/06/22 08:50:55;;;;;;;;;19.75;17.00;;;;;20.68;69.57;100856.63;4964128;28;45440;-70
2021/06/22 08:53:20;;;;;;;;;22.00;18.50;;;;;20.81;70.19;100856.53;4962461;28;45790;-70
2021/06/22 08:55:46;;;;;;;;;22.50;19.25;;;;;20.97;68.91;100860.63;4964708;28;45816;-66
2021/06/22 08:58:15;;;;;;;;;22.50;20.50;;;;;21.15;69.13;100857.19;4964284;28;45552;-70
2021/06/22 09:00:45;;;;;;;;;20.75;20.00;;;;;21.46;67.83;100859.09;4962627;28;46126;-73
2021/06/22 09:03:12;;;;;;;;;17.25;15.75;;;;;22.34;65.77;100859.97;4960921;28;47171;-70
2021/06/22 09:05:40;;;;;;;;;20.00;19.75;;;;;23.93;64.54;100851.50;4965449;28;45472;-70
2021/06/22 09:08:16;;;;;;;;;21.00;17.00;;;;;26.45;58.54;100859.56;4962505;28;45679;-70
2021/06/22 09:10:42;;;;;;;;;17.25;16.25;;;;;28.75;54.23;100853.28;4965959;28;45639;-71
2021/06/22 09:13:25;;;;;;;;;15.25;15.25;;;;;31.54;49.86;100848.47;4965301;28;46239;-74
2021/06/22 09:15:53;;;;;;;;;17.00;14.75;;;;;33.77;45.16;100850.44;4965024;28;45719;-74
2021/06/22 09:18:27;;;;;;;;;19.50;15.75;;;;;33.49;41.85;100856.97;4971845;28;45572;-74
2021/06/22 09:21:01;;;;;;;;;19.25;16.75;;;;;31.91;42.44;100861.50;4961599;28;45912;-72
2021/06/22 09:23:35;;;;;;;;;13.25;13.25;;;;;30.44;44.72;100866.91;4959299;28;46591;-68
2021/06/22 09:26:09;;;;;;;;;15.25;14.00;;;;;29.18;46.43;100873.00;4962809;28;45923;-71
2021/06/22 09:28:34;;;;;;;;;19.75;18.00;;;;;28.20;47.72;100865.56;4959288;28;45788;-69
2021/06/22 09:31:05;;;;;;;;;20.50;17.25;;;;;27.35;49.42;100879.03;4970694;28;45560;-72
2021/06/22 09:33:40;;;;;;;;;18.75;16.25;;;;;26.57;50.62;100885.50;4971049;28;47356;-70
2021/06/22 09:36:19;;;;;;;;;17.00;17.00;;;;;25.82;51.32;100876.00;4962991;28;46556;-69
2021/06/22 09:38:52;;;;;;;;;24.50;18.00;;;;;25.14;52.62;100877.78;4963583;28;45699;-69
2021/06/22 09:41:29;;;;;;;;;17.25;16.00;;;;;24.56;54.17;100876.16;4969962;28;45474;-68
2021/06/22 09:44:06;;;;;;;;;18.25;16.25;;;;;24.11;54.64;100877.59;4978870;28;46066;-68
2021/06/22 09:46:37;;;;;;;;;22.25;18.00;;;;;23.67;55.65;100873.56;4963595;28;45547;-68
2021/06/22 09:49:09;;;;;;;;;16.25;13.75;;;;;23.26;56.34;100884.13;4967261;28;45609;-70
2021/06/22 09:51:51;;;;;;;;;17.50;17.50;;;;;22.96;57.26;100884.09;4974013;28;45537;-73
2021/06/22 09:54:21;;;;;;;;;18.00;16.75;;;;;22.71;57.90;100889.59;4959688;28;45971;-77
2021/06/22 09:57:00;;;;;;;;;21.25;18.25;;;;;22.50;60.01;100883.63;4968056;28;45907;-68
2021/06/22 09:59:27;;;;;;;;;20.75;17.25;;;;;22.24;58.91;100887.41;4963868;28;45550;-69
2021/06/22 10:02:00;;;;;;;;;18.50;18.25;;;;;21.90;60.13;100880.66;4968054;28;45565;-70
2021/06/22 10:04:29;;;;;;;;;20.25;18.25;;;;;21.63;60.55;100888.94;4970000;28;47222;-70
2021/06/22 10:06:57;;;;;;;;;20.25;18.75;;;;;21.41;61.69;100890.34;4965450;28;45442;-67
2021/06/22 10:09:31;;;;;;;;;17.00;15.75;;;;;21.21;62.42;100899.31;4960469;28;45548;-68
2021/06/22 10:12:07;;;;;;;;;16.50;15.75;;;;;21.10;63.61;100894.66;4965305;28;45680;-68
2021/06/22 10:14:47;;;;;;;;;19.00;17.25;;;;;20.98;66.06;100912.47;4966404;28;46082;-68
2021/06/22 10:17:18;;;;;;;;;23.00;19.25;;;;;20.77;69.69;100901.00;4964885;28;45556;-71
2021/06/22 10:19:46;;;;;;;;;21.00;17.00;;;;;20.57;68.74;100908.28;4961146;28;45534;-67
2021/06/22 10:22:14;;;;;;;;;19.75;17.50;;;;;20.35;68.01;100908.53;4963388;28;45990;-69
2021/06/22 10:24:44;;;;;;;;;22.50;20.25;;;;;20.26;68.36;100900.91;4962571;28;47090;-70
2021/06/22 10:27:11;;;;;;;;;17.50;17.50;;;;;20.18;68.62;100907.31;4961682;28;45407;-65
2021/06/22 10:29:37;;;;;;;;;21.00;19.50;;;;;20.15;68.57;100907.72;4961837;28;46239;-74
2021/06/22 10:32:03;;;;;;;;;22.25;19.75;;;;;20.10;68.23;100912.88;4966141;28;46196;-67
2021/06/22 10:34:30;;;;;;;;;25.00;23.50;;;;;20.03;69.19;100918.28;4960615;28;46090;-65
2021/06/22 10:37:14;;;;;;;;;23.50;20.25;;;;;19.95;68.90;100915.78;4959139;28;45698;-66
2021/06/22 10:39:45;;;;;;;;;23.50;19.75;;;;;19.84;69.19;100922.59;4962972;28;45561;-69
2021/06/22 10:42:13;;;;;;;;;23.75;22.25;;;;;19.74;69.97;100919.50;4960409;28;45496;-69
2021/06/22 10:44:40;;;;;;;;;27.75;20.25;;;;;19.67;69.96;100927.53;4963632;28;47205;-66
2021/06/22 10:47:29;;;;;;;;;20.00;19.75;;;;;19.64;69.87;100941.31;4960141;28;45447;-67
2021/06/22 10:49:57;;;;;;;;;19.25;16.50;;;;;19.54;69.83;100941.72;4960049;28;48208;-66
2021/06/22 10:52:44;;;;;;;;;19.50;18.75;;;;;19.43;73.57;100944.16;4958951;28;45736;-71
2021/06/22 10:55:10;;;;;;;;;20.75;17.50;;;;;19.31;73.84;100946.59;4957468;28;47119;-67
2021/06/22 10:57:59;;;;;;;;;20.00;15.00;;;;;19.18;74.41;100962.63;4959569;28;45558;-64
2021/06/22 11:00:26;;;;;;;;;16.50;14.75;;;;;19.04;72.71;100967.94;4961956;28;45700;-67
2021/06/22 11:03:11;;;;;;;;;18.75;16.00;;;;;18.91;73.00;100976.72;4959220;28;45580;-66
2021/06/22 11:05:38;;;;;;;;;18.25;17.00;;;;;18.80;74.81;100973.78;4955890;28;47162;-64
2021/06/22 11:08:13;;;;;;;;;12.50;12.50;;;;;18.72;76.04;100985.47;4958069;28;45947;-63
2021/06/22 11:10:47;;;;;;;;;14.25;13.25;;;;;18.67;76.71;101002.09;4960246;28;46092;-66
2021/06/22 11:13:33;;;;;;;;;18.25;16.00;;;;;18.63;74.65;100998.16;4974572;28;45568;-67
2021/06/22 11:16:05;;;;;;;;;16.00;14.50;;;;;18.60;74.90;100985.19;4956274;28;46346;-64
2021/06/22 11:18:56;;;;;;;;;18.00;16.25;;;;;18.57;75.02;100963.31;4959882;28;45629;-67